createdAt,value
2022-12-09T00:00:14.283Z,118.47
2022-12-09T00:02:41.650Z,65.22
2022-12-09T00:05:09.376Z,84.03
2022-12-09T00:07:37.140Z,75.20
2022-12-09T00:10:06.168Z,155.23
2022-12-09T00:12:33.763Z,84.97
2022-12-09T00:15:00.993Z,114.53
2022-12-09T00:17:28.224Z,75.80
2022-12-09T00:19:55.592Z,69.45
2022-12-09T00:22:22.914Z,71.03
2022-12-09T00:24:50.332Z,66.18
2022-12-09T00:27:17.453Z,74.22
2022-12-09T00:29:45.050Z,102.18
2022-12-09T00:32:12.711Z,128.70
2022-12-09T00:34:40.076Z,137.45
2022-12-09T00:37:07.516Z,101.22
2022-12-09T00:39:34.589Z,112.60
2022-12-09T00:42:02.098Z,134.52
2022-12-09T00:44:29.616Z,87.35
2022-12-09T00:46:57.112Z,130.38
2022-12-09T00:49:24.296Z,115.65
2022-12-09T00:51:51.595Z,131.82
2022-12-09T00:54:18.747Z,82.80
2022-12-09T00:56:46.263Z,108.47
2022-12-09T00:59:13.483Z,71.38
2022-12-09T01:01:40.860Z,79.68
2022-12-09T01:04:10.905Z,83.57
2022-12-09T01:06:38.066Z,113.47
2022-12-09T01:09:05.407Z,141.20
2022-12-09T01:11:32.768Z,148.38
2022-12-09T01:14:02.456Z,157.23
2022-12-09T01:16:33.773Z,108.95
2022-12-09T01:19:04.416Z,126.82
2022-12-09T01:21:32.595Z,162.13
2022-12-09T01:24:00.198Z,106.63
2022-12-09T01:26:28.073Z,120.13
2022-12-09T01:28:57.591Z,93.53
2022-12-09T01:31:25.827Z,75.55
2022-12-09T01:33:55.378Z,101.10
2022-12-09T01:36:26.172Z,102.25
2022-12-09T01:38:54.144Z,86.78
2022-12-09T01:41:22.706Z,98.50
2022-12-09T01:44:20.931Z,107.40
2022-12-09T01:46:49.388Z,111.65
2022-12-09T01:49:22.438Z,99.95
2022-12-09T01:51:59.811Z,82.25
2022-12-09T01:54:27.336Z,107.93
2022-12-09T01:56:55.277Z,74.20
2022-12-09T01:59:24.926Z,96.22
2022-12-09T02:01:56.898Z,76.60
2022-12-09T02:04:24.806Z,85.90
2022-12-09T02:06:52.556Z,69.60
2022-12-09T02:09:20.050Z,75.57
2022-12-09T02:12:21.638Z,75.97
2022-12-09T02:14:59.649Z,45.65
2022-12-09T02:17:55.824Z,34.40
2022-12-09T02:20:38.916Z,52.40
2022-12-09T02:23:12.335Z,46.33
2022-12-09T02:25:53.379Z,79.82
2022-12-09T02:28:40.406Z,57.00
2022-12-09T02:31:27.340Z,29.15
2022-12-09T02:33:57.633Z,34.17
2022-12-09T02:36:28.488Z,25.13
2022-12-09T02:38:57.839Z,39.85
2022-12-09T02:41:29.412Z,32.78
2022-12-09T02:44:05.026Z,33.85
2022-12-09T02:46:34.881Z,31.55
2022-12-09T02:49:02.691Z,27.35
2022-12-09T02:51:34.090Z,45.97
2022-12-09T02:54:12.521Z,61.75
2022-12-09T02:56:44.015Z,29.75
2022-12-09T02:59:11.328Z,37.75
2022-12-09T03:01:45.529Z,36.47
2022-12-09T03:04:22.664Z,35.78
2022-12-09T03:06:55.084Z,34.22
2022-12-09T03:09:34.329Z,46.20
2022-12-09T03:12:07.723Z,32.92
2022-12-09T03:14:50.264Z,71.90
2022-12-09T03:17:25.843Z,46.53
2022-12-09T03:20:00.921Z,51.63
2022-12-09T03:22:31.395Z,49.80
2022-12-09T03:25:15.184Z,34.10
2022-12-09T03:28:02.312Z,42.28
2022-12-09T03:30:34.013Z,48.70
2022-12-09T03:33:03.119Z,40.88
2022-12-09T03:35:37.765Z,59.88
2022-12-09T03:38:10.895Z,57.55
2022-12-09T03:40:40.282Z,58.78
2022-12-09T03:43:16.469Z,52.15
2022-12-09T03:45:44.216Z,87.90
2022-12-09T03:48:12.250Z,52.17
2022-12-09T03:50:55.515Z,55.45
2022-12-09T03:53:31.796Z,50.17
2022-12-09T03:56:07.059Z,50.80
2022-12-09T03:58:37.036Z,38.25
2022-12-09T04:01:06.010Z,51.85
2022-12-09T04:03:34.675Z,47.22
2022-12-09T04:06:02.253Z,51.78
2022-12-09T04:08:29.874Z,41.67
2022-12-09T04:10:57.402Z,51.53
2022-12-09T04:13:24.477Z,42.53
2022-12-09T04:15:51.728Z,79.05
2022-12-09T04:18:19.110Z,50.22
2022-12-09T04:20:46.557Z,49.20
2022-12-09T04:23:13.994Z,45.83
2022-12-09T04:25:41.614Z,45.58
2022-12-09T04:28:09.071Z,64.90
2022-12-09T04:30:36.250Z,49.15
2022-12-09T04:33:03.897Z,56.50
2022-12-09T04:35:31.245Z,49.92
2022-12-09T04:37:58.552Z,60.00
2022-12-09T04:40:25.942Z,45.80
2022-12-09T04:42:53.536Z,56.70
2022-12-09T04:45:20.745Z,49.90
2022-12-09T04:47:47.840Z,59.00
2022-12-09T04:50:15.365Z,56.40
2022-12-09T04:52:43.012Z,64.90
2022-12-09T04:55:13.206Z,63.83
2022-12-09T04:57:43.182Z,60.65
2022-12-09T05:00:11.576Z,60.63
2022-12-09T05:02:39.676Z,58.00
2022-12-09T05:05:07.642Z,62.63
2022-12-09T05:07:35.095Z,60.47
2022-12-09T05:10:02.472Z,59.47
2022-12-09T05:12:30.245Z,61.42
2022-12-09T05:14:59.012Z,49.42
2022-12-09T05:17:26.980Z,53.55
2022-12-09T05:19:54.324Z,49.70
2022-12-09T05:22:22.276Z,54.17
2022-12-09T05:24:49.775Z,60.17
2022-12-09T05:27:16.911Z,42.72
2022-12-09T05:29:44.826Z,53.90
2022-12-09T05:32:12.499Z,50.58
2022-12-09T05:34:40.303Z,50.53
2022-12-09T05:37:07.686Z,51.05
2022-12-09T05:39:35.103Z,67.40
2022-12-09T05:42:02.441Z,50.67
2022-12-09T05:44:31.192Z,44.55
2022-12-09T05:46:58.899Z,51.53
2022-12-09T05:49:26.972Z,49.08
2022-12-09T05:51:54.346Z,57.45
2022-12-09T05:54:21.627Z,51.83
2022-12-09T05:56:49.134Z,48.72
2022-12-09T05:59:18.975Z,56.35
2022-12-09T06:01:46.384Z,47.92
2022-12-09T06:04:13.997Z,45.72
2022-12-09T06:06:41.745Z,53.92
2022-12-09T06:09:12.376Z,48.17
2022-12-09T06:11:41.198Z,48.97
2022-12-09T06:14:10.149Z,48.83
2022-12-09T06:16:38.840Z,58.88
2022-12-09T06:19:06.848Z,60.58
2022-12-09T06:21:34.229Z,62.80
2022-12-09T06:24:01.374Z,51.03
2022-12-09T06:26:30.671Z,60.78
2022-12-09T06:28:59.805Z,43.50
2022-12-09T06:31:28.657Z,41.65
2022-12-09T06:33:58.390Z,57.80
2022-12-09T06:36:28.045Z,52.17
2022-12-09T06:38:57.696Z,52.95
2022-12-09T06:41:25.553Z,46.03
2022-12-09T06:43:53.885Z,49.75
2022-12-09T06:46:24.795Z,48.33
2022-12-09T06:48:53.339Z,56.05
2022-12-09T06:51:21.661Z,42.42
2022-12-09T06:53:49.425Z,61.95
2022-12-09T06:56:17.780Z,170.77
2022-12-09T06:58:46.774Z,64.22
2022-12-09T07:01:17.572Z,40.28
2022-12-09T07:03:50.253Z,41.60
2022-12-09T07:06:41.696Z,48.00
2022-12-09T07:09:17.855Z,32.00
2022-12-09T07:11:47.401Z,50.15
2022-12-09T07:14:16.906Z,30.15
2022-12-09T07:16:44.855Z,41.15
2022-12-09T07:19:18.410Z,36.45
2022-12-09T07:21:46.974Z,51.65
2022-12-09T07:24:14.129Z,45.42
2022-12-09T07:26:41.445Z,42.75
2022-12-09T07:29:09.274Z,37.08
2022-12-09T07:31:37.002Z,44.72
2022-12-09T07:34:05.745Z,39.53
2022-12-09T07:36:35.788Z,39.80
2022-12-09T07:39:06.361Z,37.33
2022-12-09T07:41:34.104Z,43.13
2022-12-09T07:44:01.947Z,51.72
2022-12-09T07:46:29.761Z,46.72
2022-12-09T07:48:58.595Z,52.45
2022-12-09T07:51:26.809Z,56.20
2022-12-09T07:53:54.884Z,62.70
2022-12-09T07:56:23.450Z,72.78
2022-12-09T07:58:54.814Z,55.88
2022-12-09T08:01:25.493Z,100.45
2022-12-09T08:03:53.436Z,58.20
2022-12-09T08:06:23.627Z,94.95
2022-12-09T08:08:51.964Z,153.23
2022-12-09T08:11:21.569Z,91.75
2022-12-09T08:13:50.301Z,56.78
2022-12-09T08:16:21.882Z,107.95
2022-12-09T08:18:51.421Z,90.63
2022-12-09T08:21:21.916Z,79.28
2022-12-09T08:23:50.119Z,74.60
2022-12-09T08:26:20.661Z,79.90
2022-12-09T08:28:48.722Z,85.90
2022-12-09T08:31:19.694Z,78.10
2022-12-09T08:33:47.534Z,63.95
2022-12-09T08:36:24.062Z,56.50
2022-12-09T08:38:52.331Z,48.40
2022-12-09T08:41:36.903Z,46.35
2022-12-09T08:46:35.621Z,36.65
2022-12-09T08:49:03.628Z,57.42
2022-12-09T08:51:31.830Z,34.65
2022-12-09T08:54:00.430Z,38.33
2022-12-09T08:56:29.147Z,107.43
2022-12-09T08:58:57.149Z,47.60
2022-12-09T09:01:32.921Z,82.55
2022-12-09T09:04:09.976Z,68.88
2022-12-09T09:06:39.683Z,35.72
2022-12-09T09:09:09.060Z,41.40
2022-12-09T09:11:37.374Z,50.15
2022-12-09T09:14:06.875Z,43.08
2022-12-09T09:16:35.547Z,42.40
2022-12-09T09:19:06.850Z,43.03
2022-12-09T09:21:35.726Z,36.45
2022-12-09T09:24:08.611Z,43.10
2022-12-09T09:26:36.250Z,44.53
2022-12-09T09:29:04.115Z,54.40
2022-12-09T09:31:31.198Z,47.03
2022-12-09T09:33:58.823Z,43.80
2022-12-09T09:36:26.434Z,49.80
2022-12-09T09:38:56.704Z,44.53
2022-12-09T09:41:36.496Z,55.50
2022-12-09T09:44:05.296Z,54.20
2022-12-09T09:46:42.594Z,57.30
2022-12-09T09:49:19.800Z,59.72
2022-12-09T09:51:48.433Z,62.38
2022-12-09T09:54:16.053Z,50.13
2022-12-09T09:56:55.132Z,53.13
2022-12-09T09:59:49.105Z,55.03
2022-12-09T10:02:56.948Z,48.95
2022-12-09T10:05:34.839Z,61.58
2022-12-09T10:08:05.499Z,54.03
2022-12-09T10:11:10.894Z,72.20
2022-12-09T10:13:54.965Z,69.03
2022-12-09T10:16:40.611Z,86.43
2022-12-09T10:21:58.120Z,62.47
2022-12-09T10:24:39.167Z,72.57
2022-12-09T10:27:44.677Z,82.40
2022-12-09T10:30:18.880Z,66.28
2022-12-09T10:32:46.879Z,81.97
2022-12-09T10:35:27.071Z,85.25
2022-12-09T10:37:56.494Z,71.32
2022-12-09T10:40:44.479Z,66.22
2022-12-09T10:43:47.332Z,70.65
2022-12-09T10:46:24.355Z,86.07
2022-12-09T10:48:59.206Z,62.67
2022-12-09T10:51:31.106Z,61.72
2022-12-09T10:54:10.604Z,78.05
2022-12-09T10:56:40.681Z,67.78
2022-12-09T10:59:24.949Z,61.40
2022-12-09T11:01:58.553Z,54.53
2022-12-09T11:04:40.740Z,62.63
2022-12-09T11:07:08.651Z,63.30
2022-12-09T11:09:38.722Z,61.67
2022-12-09T11:12:15.924Z,65.20
2022-12-09T11:15:03.095Z,62.03
2022-12-09T11:17:33.212Z,49.50
2022-12-09T11:20:07.577Z,46.80
2022-12-09T11:25:30.355Z,79.00
2022-12-09T11:28:01.969Z,48.13
2022-12-09T11:30:40.672Z,40.58
2022-12-09T11:33:14.529Z,39.78
2022-12-09T11:35:45.683Z,42.95
2022-12-09T11:38:31.526Z,38.83
2022-12-09T11:41:04.265Z,41.95
2022-12-09T11:43:46.429Z,45.45
2022-12-09T11:46:13.736Z,39.70
2022-12-09T11:48:47.857Z,42.08
2022-12-09T11:51:23.961Z,46.40
2022-12-09T11:53:57.631Z,41.88
2022-12-09T11:56:29.823Z,40.45
2022-12-09T11:59:09.565Z,39.03
2022-12-09T12:01:46.455Z,36.78
2022-12-09T12:04:36.576Z,42.97
2022-12-09T12:07:06.975Z,35.90
2022-12-09T12:09:53.615Z,36.80
2022-12-09T12:13:00.490Z,40.90
2022-12-09T12:15:51.419Z,35.58
2022-12-09T12:18:23.582Z,45.10
2022-12-09T12:21:18.880Z,37.70
2022-12-09T12:24:00.656Z,54.55
2022-12-09T12:26:54.275Z,34.78
2022-12-09T12:29:39.860Z,48.75
2022-12-09T12:35:01.078Z,188.48
2022-12-09T12:38:03.503Z,48.05
2022-12-09T12:40:54.830Z,45.15
2022-12-09T12:44:13.725Z,39.88
2022-12-09T12:46:42.602Z,59.70
2022-12-09T12:49:45.939Z,32.47
2022-12-09T12:52:47.472Z,74.43
2022-12-09T12:58:10.382Z,37.17
2022-12-09T13:01:06.034Z,151.23
2022-12-09T13:03:57.991Z,32.70
2022-12-09T13:06:38.345Z,69.82
2022-12-09T13:09:12.864Z,175.18
2022-12-09T13:12:10.534Z,43.53
2022-12-09T13:14:52.112Z,29.58
2022-12-09T13:17:27.373Z,62.55
2022-12-09T13:19:59.188Z,24.25
2022-12-09T13:22:44.706Z,30.48
2022-12-09T13:28:08.526Z,34.08
2022-12-09T13:30:49.669Z,33.67
2022-12-09T13:33:28.935Z,30.75
2022-12-09T13:36:17.679Z,31.92
2022-12-09T13:38:45.878Z,30.75
2022-12-09T13:42:01.894Z,32.72
2022-12-09T13:44:35.650Z,31.98
2022-12-09T13:47:24.749Z,31.98
2022-12-09T13:49:58.860Z,31.60
2022-12-09T13:52:50.754Z,26.00
2022-12-09T13:55:50.092Z,29.73
2022-12-09T13:58:29.461Z,30.17
2022-12-09T14:01:18.074Z,30.73
2022-12-09T14:04:13.051Z,32.53
2022-12-09T14:06:54.937Z,27.90
2022-12-09T14:09:35.809Z,32.47
2022-12-09T14:12:06.690Z,30.60
2022-12-09T14:14:33.715Z,34.05
2022-12-09T14:17:03.280Z,28.83
2022-12-09T14:19:48.904Z,28.92
2022-12-09T14:24:59.401Z,30.88
2022-12-09T14:27:32.133Z,27.45
2022-12-09T14:30:18.735Z,29.20
2022-12-09T14:32:54.701Z,29.13
2022-12-09T14:35:26.294Z,28.23
2022-12-09T14:38:23.457Z,30.95
2022-12-09T14:41:11.537Z,27.13
2022-12-09T14:44:12.479Z,51.60
2022-12-09T14:46:42.165Z,32.60
2022-12-09T14:49:12.091Z,75.63
2022-12-09T14:51:52.488Z,46.72
2022-12-09T14:54:24.753Z,38.65
2022-12-09T14:56:58.795Z,23.00
2022-12-09T14:59:28.696Z,24.40
2022-12-09T15:01:58.886Z,27.25
2022-12-09T15:04:43.358Z,28.52
2022-12-09T15:07:25.215Z,31.15
2022-12-09T15:09:59.635Z,29.52
2022-12-09T15:12:35.343Z,25.63
2022-12-09T15:15:20.137Z,28.23
2022-12-09T15:17:49.586Z,28.75
2022-12-09T15:20:24.571Z,26.38
2022-12-09T15:22:54.492Z,24.98
2022-12-09T15:25:23.257Z,24.48
2022-12-09T15:28:26.060Z,23.45
2022-12-09T15:31:02.567Z,20.73
2022-12-09T15:33:32.840Z,27.67
2022-12-09T15:36:22.100Z,24.70
2022-12-09T15:38:55.077Z,22.10
2022-12-09T15:41:44.165Z,22.23
2022-12-09T15:44:16.532Z,23.98
2022-12-09T15:46:49.540Z,25.23
2022-12-09T15:49:22.402Z,24.60
2022-12-09T15:51:53.285Z,21.33
2022-12-09T15:54:29.251Z,25.70
2022-12-09T15:57:02.302Z,19.55
2022-12-09T15:59:36.956Z,19.70
2022-12-09T16:02:04.879Z,26.05
2022-12-09T16:04:44.948Z,20.73
2022-12-09T16:07:14.084Z,26.15
2022-12-09T16:09:41.572Z,24.83
2022-12-09T16:12:26.294Z,29.67
2022-12-09T16:14:53.481Z,25.35
2022-12-09T16:17:30.027Z,25.33
2022-12-09T16:19:57.846Z,27.02
2022-12-09T16:22:26.740Z,32.58
2022-12-09T16:25:15.580Z,33.28
2022-12-09T16:27:50.651Z,31.30
2022-12-09T16:30:23.435Z,30.83
2022-12-09T16:32:58.575Z,30.33
2022-12-09T16:38:17.085Z,30.27
2022-12-09T16:40:44.236Z,25.65
2022-12-09T16:43:17.794Z,30.63
2022-12-09T16:45:53.265Z,21.63
2022-12-09T16:48:24.281Z,28.48
2022-12-09T16:50:54.163Z,25.40
2022-12-09T16:53:28.749Z,23.05
2022-12-09T16:56:01.776Z,28.23
2022-12-09T16:58:30.606Z,33.53
2022-12-09T17:00:59.517Z,26.05
2022-12-09T17:03:40.330Z,32.35
2022-12-09T17:06:13.093Z,24.20
2022-12-09T17:08:40.424Z,25.65
2022-12-09T17:11:07.632Z,27.40
2022-12-09T17:13:34.851Z,46.70
2022-12-09T17:16:02.388Z,37.65
2022-12-09T17:18:29.945Z,40.05
2022-12-09T17:21:06.133Z,35.05
2022-12-09T17:23:39.350Z,30.20
2022-12-09T17:26:11.089Z,45.22
2022-12-09T17:28:39.704Z,41.55
2022-12-09T17:31:25.005Z,35.72
2022-12-09T17:33:52.543Z,38.33
2022-12-09T17:36:19.702Z,32.08
2022-12-09T17:38:47.373Z,43.72
2022-12-09T17:41:21.641Z,37.53
2022-12-09T17:43:48.705Z,34.37
2022-12-09T17:46:16.703Z,30.73
2022-12-09T17:48:44.150Z,35.85
2022-12-09T17:51:13.759Z,30.38
2022-12-09T17:53:43.180Z,35.25
2022-12-09T17:56:17.214Z,31.88
2022-12-09T17:58:44.921Z,31.52
2022-12-09T18:01:19.247Z,34.80
2022-12-09T18:03:56.225Z,28.13
2022-12-09T18:06:31.403Z,28.83
2022-12-09T18:08:58.679Z,28.20
2022-12-09T18:11:25.940Z,32.25
2022-12-09T18:13:53.757Z,37.08
2022-12-09T18:16:21.192Z,34.08
2022-12-09T18:18:48.603Z,35.72
2022-12-09T18:21:16.706Z,43.70
2022-12-09T18:23:44.262Z,41.63
2022-12-09T18:26:16.754Z,39.45
2022-12-09T18:28:44.328Z,32.63
2022-12-09T18:31:19.249Z,33.80
2022-12-09T18:33:46.762Z,44.13
2022-12-09T18:36:20.035Z,33.55
2022-12-09T18:38:48.324Z,281.65
2022-12-09T18:41:21.332Z,39.17
2022-12-09T18:43:51.240Z,31.45
2022-12-09T18:46:25.021Z,32.08
2022-12-09T18:49:08.075Z,29.05
2022-12-09T18:51:35.631Z,27.42
2022-12-09T18:54:04.290Z,30.02
2022-12-09T18:56:32.359Z,33.60
2022-12-09T18:59:08.547Z,23.40
2022-12-09T19:01:42.131Z,33.55
2022-12-09T19:04:14.647Z,31.95
2022-12-09T19:06:44.151Z,25.38
2022-12-09T19:09:16.598Z,24.50
2022-12-09T19:11:46.622Z,27.45
2022-12-09T19:14:14.893Z,28.50
2022-12-09T19:16:43.172Z,48.97
2022-12-09T19:19:14.070Z,30.02
2022-12-09T19:21:42.076Z,29.55
2022-12-09T19:24:17.246Z,24.85
2022-12-09T19:26:44.847Z,34.08
2022-12-09T19:29:13.649Z,31.38
2022-12-09T19:31:49.395Z,32.30
2022-12-09T19:34:22.856Z,38.80
2022-12-09T19:36:51.544Z,30.58
2022-12-09T19:39:20.823Z,27.77
2022-12-09T19:41:48.471Z,24.38
2022-12-09T19:44:37.130Z,29.55
2022-12-09T19:47:06.314Z,25.48
2022-12-09T19:49:33.713Z,30.08
2022-12-09T19:52:01.026Z,32.03
2022-12-09T19:54:29.883Z,36.70
2022-12-09T19:56:57.334Z,33.45
2022-12-09T19:59:26.275Z,32.90
2022-12-09T20:01:53.607Z,32.38
2022-12-09T20:07:10.793Z,31.00
2022-12-09T20:09:38.048Z,31.55
2022-12-09T20:12:05.416Z,29.35
2022-12-09T20:14:32.476Z,29.40
2022-12-09T20:16:59.627Z,31.10
2022-12-09T20:19:26.768Z,29.30
2022-12-09T20:21:54.141Z,26.73
2022-12-09T20:24:21.394Z,32.50
2022-12-09T20:26:48.745Z,31.25
2022-12-09T20:29:18.692Z,31.58
2022-12-09T20:31:46.183Z,27.33
2022-12-09T20:34:16.335Z,32.33
2022-12-09T20:36:45.027Z,32.28
2022-12-09T20:39:18.341Z,27.42
2022-12-09T20:41:46.462Z,32.38
2022-12-09T20:44:14.519Z,30.70
2022-12-09T20:46:46.156Z,28.83
2022-12-09T20:49:13.504Z,34.67
2022-12-09T20:51:41.863Z,34.28
2022-12-09T20:54:11.714Z,29.40
2022-12-09T20:56:38.903Z,29.92
2022-12-09T20:59:06.915Z,25.85
2022-12-09T21:01:35.954Z,27.95
2022-12-09T21:04:06.132Z,25.58
2022-12-09T21:06:36.007Z,22.38
2022-12-09T21:09:15.036Z,28.42
2022-12-09T21:11:42.206Z,26.42
2022-12-09T21:14:13.770Z,27.50
2022-12-09T21:16:42.771Z,32.92
2022-12-09T21:19:14.457Z,30.60
2022-12-09T21:21:46.944Z,31.60
2022-12-09T21:24:15.556Z,29.48
2022-12-09T21:26:43.150Z,21.77
2022-12-09T21:29:11.741Z,27.83
2022-12-09T21:31:41.158Z,25.08
2022-12-09T21:34:09.579Z,32.55
2022-12-09T21:36:39.355Z,33.47
2022-12-09T21:39:07.426Z,25.00
2022-12-09T21:41:36.670Z,28.48
2022-12-09T21:44:04.774Z,27.60
2022-12-09T21:46:34.711Z,29.02
2022-12-09T21:49:04.545Z,23.33
2022-12-09T21:51:33.062Z,36.38
2022-12-09T21:54:00.798Z,29.85
2022-12-09T21:56:33.523Z,30.15
2022-12-09T21:59:01.222Z,32.28
2022-12-09T22:01:31.288Z,28.35
2022-12-09T22:04:01.626Z,34.97
2022-12-09T22:06:29.684Z,30.45
2022-12-09T22:08:59.871Z,31.30
2022-12-09T22:11:30.129Z,32.15
2022-12-09T22:13:59.722Z,36.03
2022-12-09T22:16:31.155Z,39.10
2022-12-09T22:19:00.027Z,27.80
2022-12-09T22:21:29.831Z,33.25
2022-12-09T22:24:00.129Z,29.75
2022-12-09T22:26:28.135Z,27.52
2022-12-09T22:28:57.254Z,31.38
2022-12-09T22:31:32.738Z,26.52
2022-12-09T22:34:02.602Z,39.38
2022-12-09T22:36:30.427Z,38.08
2022-12-09T22:38:57.832Z,32.63
2022-12-09T22:41:27.721Z,31.67
2022-12-09T22:43:56.036Z,33.00
2022-12-09T22:46:34.033Z,33.00
2022-12-09T22:49:06.443Z,43.60
2022-12-09T22:51:35.988Z,38.63
2022-12-09T22:54:06.019Z,32.30
2022-12-09T22:56:33.799Z,36.65
2022-12-09T22:59:01.228Z,33.42
2022-12-09T23:01:31.005Z,38.13
2022-12-09T23:03:59.803Z,29.50
2022-12-09T23:06:28.659Z,34.97
2022-12-09T23:08:56.414Z,37.05
2022-12-09T23:11:26.076Z,25.50
2022-12-09T23:13:54.117Z,34.15
2022-12-09T23:16:24.207Z,36.92
2022-12-09T23:18:52.548Z,29.02
2022-12-09T23:21:22.362Z,39.50
2022-12-09T23:23:56.064Z,35.90
2022-12-09T23:26:27.966Z,28.50
2022-12-09T23:28:58.149Z,32.83
2022-12-09T23:31:30.960Z,28.65
2022-12-09T23:34:01.232Z,26.30
2022-12-09T23:36:32.174Z,32.20
2022-12-09T23:39:00.870Z,36.30
2022-12-09T23:41:29.181Z,32.20
2022-12-09T23:43:56.229Z,37.83
2022-12-09T23:46:26.534Z,32.67
2022-12-09T23:48:55.130Z,38.28
2022-12-09T23:51:28.077Z,33.72
2022-12-09T23:53:57.702Z,28.35
2022-12-09T23:56:26.963Z,30.90
2022-12-09T23:59:06.137Z,37.03
